sensor_id;sensor_type;location;lat;lon;timestamp;P1;durP1;ratioP1;P2;durP2;ratioP2
59062;SDS011;44851;45.648;9.004;2023-01-15T00:03:45;36.67;;;21.50;;
59062;SDS011;44851;45.648;9.004;2023-01-15T00:06:11;33.10;;;20.73;;
59062;SDS011;44851;45.648;9.004;2023-01-15T00:08:36;31.53;;;20.27;;
59062;SDS011;44851;45.648;9.004;2023-01-15T00:11:02;30.77;;;20.33;;
59062;SDS011;44851;45.648;9.004;2023-01-15T00:13:28;28.00;;;18.87;;
59062;SDS011;44851;45.648;9.004;2023-01-15T00:15:53;31.57;;;20.60;;
59062;SDS011;44851;45.648;9.004;2023-01-15T00:18:26;29.20;;;20.27;;
59062;SDS011;44851;45.648;9.004;2023-01-15T00:20:57;23.33;;;17.03;;
59062;SDS011;44851;45.648;9.004;2023-01-15T00:23:23;26.87;;;17.53;;
59062;SDS011;44851;45.648;9.004;2023-01-15T00:26:08;23.30;;;17.97;;
59062;SDS011;44851;45.648;9.004;2023-01-15T00:28:56;23.90;;;17.30;;
59062;SDS011;44851;45.648;9.004;2023-01-15T00:31:21;25.70;;;16.57;;
59062;SDS011;44851;45.648;9.004;2023-01-15T00:33:46;23.00;;;17.13;;
59062;SDS011;44851;45.648;9.004;2023-01-15T00:36:12;24.37;;;16.40;;
59062;SDS011;44851;45.648;9.004;2023-01-15T00:38:37;23.97;;;17.67;;
59062;SDS011;44851;45.648;9.004;2023-01-15T00:41:02;26.97;;;17.90;;
59062;SDS011;44851;45.648;9.004;2023-01-15T00:43:28;23.33;;;16.80;;
59062;SDS011;44851;45.648;9.004;2023-01-15T00:45:53;26.10;;;17.67;;
59062;SDS011;44851;45.648;9.004;2023-01-15T00:48:18;21.83;;;16.07;;
59062;SDS011;44851;45.648;9.004;2023-01-15T00:50:44;25.47;;;17.23;;
59062;SDS011;44851;45.648;9.004;2023-01-15T00:53:09;21.90;;;16.33;;
59062;SDS011;44851;45.648;9.004;2023-01-15T00:55:34;24.30;;;16.83;;
59062;SDS011;44851;45.648;9.004;2023-01-15T00:58:00;23.67;;;17.60;;
59062;SDS011;44851;45.648;9.004;2023-01-15T01:00:25;24.47;;;17.90;;
59062;SDS011;44851;45.648;9.004;2023-01-15T01:02:50;28.33;;;18.23;;
59062;SDS011;44851;45.648;9.004;2023-01-15T01:05:15;23.70;;;16.73;;
59062;SDS011;44851;45.648;9.004;2023-01-15T01:07:41;24.30;;;16.73;;
59062;SDS011;44851;45.648;9.004;2023-01-15T01:10:06;26.30;;;17.77;;
59062;SDS011;44851;45.648;9.004;2023-01-15T01:12:33;24.37;;;17.50;;
59062;SDS011;44851;45.648;9.004;2023-01-15T01:14:58;24.73;;;17.67;;
59062;SDS011;44851;45.648;9.004;2023-01-15T01:17:23;23.20;;;17.43;;
59062;SDS011;44851;45.648;9.004;2023-01-15T01:19:49;23.93;;;15.73;;
59062;SDS011;44851;45.648;9.004;2023-01-15T01:22:15;22.83;;;16.40;;
59062;SDS011;44851;45.648;9.004;2023-01-15T01:24:40;23.43;;;17.33;;
59062;SDS011;44851;45.648;9.004;2023-01-15T01:27:06;28.93;;;17.43;;
59062;SDS011;44851;45.648;9.004;2023-01-15T01:29:31;25.40;;;16.67;;
59062;SDS011;44851;45.648;9.004;2023-01-15T01:31:56;25.03;;;17.00;;
59062;SDS011;44851;45.648;9.004;2023-01-15T01:34:22;24.70;;;17.17;;
59062;SDS011;44851;45.648;9.004;2023-01-15T01:36:47;22.83;;;17.13;;
59062;SDS011;44851;45.648;9.004;2023-01-15T01:39:14;22.27;;;17.20;;
59062;SDS011;44851;45.648;9.004;2023-01-15T01:41:41;23.40;;;17.43;;
59062;SDS011;44851;45.648;9.004;2023-01-15T01:44:56;25.80;;;17.93;;
59062;SDS011;44851;45.648;9.004;2023-01-15T01:46:59;22.63;;;15.83;;
59062;SDS011;44851;45.648;9.004;2023-01-15T01:49:27;24.70;;;17.03;;
59062;SDS011;44851;45.648;9.004;2023-01-15T01:51:57;25.47;;;17.23;;
59062;SDS011;44851;45.648;9.004;2023-01-15T01:54:26;26.67;;;17.63;;
59062;SDS011;44851;45.648;9.004;2023-01-15T01:56:55;24.03;;;17.17;;
59062;SDS011;44851;45.648;9.004;2023-01-15T01:59:21;26.27;;;17.53;;
59062;SDS011;44851;45.648;9.004;2023-01-15T02:01:49;27.50;;;17.70;;
59062;SDS011;44851;45.648;9.004;2023-01-15T02:04:14;26.00;;;16.70;;
59062;SDS011;44851;45.648;9.004;2023-01-15T02:06:42;27.90;;;17.43;;
59062;SDS011;44851;45.648;9.004;2023-01-15T02:09:08;25.63;;;17.97;;
59062;SDS011;44851;45.648;9.004;2023-01-15T02:11:33;23.40;;;16.13;;
59062;SDS011;44851;45.648;9.004;2023-01-15T02:16:41;24.67;;;16.67;;
59062;SDS011;44851;45.648;9.004;2023-01-15T02:30:49;25.60;;;17.97;;
59062;SDS011;44851;45.648;9.004;2023-01-15T02:33:25;28.40;;;17.93;;
59062;SDS011;44851;45.648;9.004;2023-01-15T02:36:14;24.83;;;17.43;;
59062;SDS011;44851;45.648;9.004;2023-01-15T02:38:43;25.37;;;17.20;;
59062;SDS011;44851;45.648;9.004;2023-01-15T02:41:13;24.40;;;16.97;;
59062;SDS011;44851;45.648;9.004;2023-01-15T02:43:43;24.97;;;16.50;;
59062;SDS011;44851;45.648;9.004;2023-01-15T02:46:10;27.50;;;16.43;;
59062;SDS011;44851;45.648;9.004;2023-01-15T02:48:39;29.90;;;17.73;;
59062;SDS011;44851;45.648;9.004;2023-01-15T02:51:09;22.17;;;16.40;;
59062;SDS011;44851;45.648;9.004;2023-01-15T02:53:38;26.97;;;18.47;;
59062;SDS011;44851;45.648;9.004;2023-01-15T02:56:29;23.90;;;16.63;;
59062;SDS011;44851;45.648;9.004;2023-01-15T02:58:56;25.50;;;16.60;;
59062;SDS011;44851;45.648;9.004;2023-01-15T03:01:30;22.77;;;15.80;;
59062;SDS011;44851;45.648;9.004;2023-01-15T03:06:55;20.77;;;15.53;;
59062;SDS011;44851;45.648;9.004;2023-01-15T03:09:29;22.27;;;15.83;;
59062;SDS011;44851;45.648;9.004;2023-01-15T03:12:07;24.87;;;16.57;;
59062;SDS011;44851;45.648;9.004;2023-01-15T03:14:49;27.10;;;19.20;;
59062;SDS011;44851;45.648;9.004;2023-01-15T03:20:24;27.53;;;17.53;;
59062;SDS011;44851;45.648;9.004;2023-01-15T03:23:09;26.40;;;17.63;;
59062;SDS011;44851;45.648;9.004;2023-01-15T03:25:39;26.07;;;17.40;;
59062;SDS011;44851;45.648;9.004;2023-01-15T03:28:11;25.13;;;17.07;;
59062;SDS011;44851;45.648;9.004;2023-01-15T03:30:39;23.37;;;16.87;;
59062;SDS011;44851;45.648;9.004;2023-01-15T03:33:05;25.07;;;17.63;;
59062;SDS011;44851;45.648;9.004;2023-01-15T03:35:51;26.77;;;17.03;;
59062;SDS011;44851;45.648;9.004;2023-01-15T03:38:24;22.33;;;15.73;;
59062;SDS011;44851;45.648;9.004;2023-01-15T03:46:56;21.93;;;16.47;;
59062;SDS011;44851;45.648;9.004;2023-01-15T03:52:16;22.90;;;16.30;;
59062;SDS011;44851;45.648;9.004;2023-01-15T04:00:46;22.83;;;15.40;;
59062;SDS011;44851;45.648;9.004;2023-01-15T04:03:16;21.93;;;15.83;;
59062;SDS011;44851;45.648;9.004;2023-01-15T04:05:44;24.17;;;16.77;;
59062;SDS011;44851;45.648;9.004;2023-01-15T04:08:11;22.13;;;16.53;;
59062;SDS011;44851;45.648;9.004;2023-01-15T04:10:49;24.30;;;16.27;;
59062;SDS011;44851;45.648;9.004;2023-01-15T04:13:16;22.87;;;16.33;;
59062;SDS011;44851;45.648;9.004;2023-01-15T04:15:41;25.70;;;18.77;;
59062;SDS011;44851;45.648;9.004;2023-01-15T04:18:06;23.57;;;16.17;;
59062;SDS011;44851;45.648;9.004;2023-01-15T04:20:32;22.27;;;16.40;;
59062;SDS011;44851;45.648;9.004;2023-01-15T04:22:57;21.30;;;15.60;;
59062;SDS011;44851;45.648;9.004;2023-01-15T04:25:23;25.33;;;17.47;;
59062;SDS011;44851;45.648;9.004;2023-01-15T04:27:48;24.03;;;16.93;;
59062;SDS011;44851;45.648;9.004;2023-01-15T04:30:14;23.60;;;16.77;;
59062;SDS011;44851;45.648;9.004;2023-01-15T04:32:41;22.07;;;16.17;;
59062;SDS011;44851;45.648;9.004;2023-01-15T04:35:07;24.50;;;17.13;;
59062;SDS011;44851;45.648;9.004;2023-01-15T04:37:32;23.90;;;16.97;;
59062;SDS011;44851;45.648;9.004;2023-01-15T04:39:57;25.00;;;16.47;;
59062;SDS011;44851;45.648;9.004;2023-01-15T04:42:23;27.43;;;18.10;;
59062;SDS011;44851;45.648;9.004;2023-01-15T04:45:07;22.87;;;17.27;;
59062;SDS011;44851;45.648;9.004;2023-01-15T04:47:32;26.27;;;17.30;;
59062;SDS011;44851;45.648;9.004;2023-01-15T04:49:58;23.50;;;15.43;;
59062;SDS011;44851;45.648;9.004;2023-01-15T04:52:23;24.00;;;17.03;;
59062;SDS011;44851;45.648;9.004;2023-01-15T04:54:48;23.90;;;17.10;;
59062;SDS011;44851;45.648;9.004;2023-01-15T04:57:14;24.53;;;16.43;;
59062;SDS011;44851;45.648;9.004;2023-01-15T04:59:39;22.27;;;16.37;;
59062;SDS011;44851;45.648;9.004;2023-01-15T05:02:04;24.53;;;17.07;;
59062;SDS011;44851;45.648;9.004;2023-01-15T05:04:30;22.97;;;15.77;;
59062;SDS011;44851;45.648;9.004;2023-01-15T05:06:55;23.77;;;16.43;;
59062;SDS011;44851;45.648;9.004;2023-01-15T05:09:21;23.47;;;16.70;;
59062;SDS011;44851;45.648;9.004;2023-01-15T05:11:46;26.77;;;17.23;;
59062;SDS011;44851;45.648;9.004;2023-01-15T05:14:11;26.17;;;17.23;;
59062;SDS011;44851;45.648;9.004;2023-01-15T05:16:37;23.90;;;17.53;;
59062;SDS011;44851;45.648;9.004;2023-01-15T05:19:03;24.37;;;16.30;;
59062;SDS011;44851;45.648;9.004;2023-01-15T05:21:32;24.47;;;16.67;;
59062;SDS011;44851;45.648;9.004;2023-01-15T05:24:00;24.43;;;16.33;;
59062;SDS011;44851;45.648;9.004;2023-01-15T05:26:28;23.97;;;15.87;;
59062;SDS011;44851;45.648;9.004;2023-01-15T05:28:55;21.93;;;15.50;;
59062;SDS011;44851;45.648;9.004;2023-01-15T05:31:22;20.57;;;15.33;;
59062;SDS011;44851;45.648;9.004;2023-01-15T05:33:48;21.03;;;14.60;;
59062;SDS011;44851;45.648;9.004;2023-01-15T05:36:16;19.47;;;14.20;;
59062;SDS011;44851;45.648;9.004;2023-01-15T05:38:42;17.77;;;13.53;;
59062;SDS011;44851;45.648;9.004;2023-01-15T05:41:09;19.47;;;13.73;;
59062;SDS011;44851;45.648;9.004;2023-01-15T05:43:58;18.90;;;13.47;;
59062;SDS011;44851;45.648;9.004;2023-01-15T05:46:25;21.03;;;14.33;;
59062;SDS011;44851;45.648;9.004;2023-01-15T05:48:50;20.10;;;13.57;;
59062;SDS011;44851;45.648;9.004;2023-01-15T05:51:16;22.27;;;14.87;;
59062;SDS011;44851;45.648;9.004;2023-01-15T05:53:42;19.77;;;14.67;;
59062;SDS011;44851;45.648;9.004;2023-01-15T05:56:07;21.03;;;13.77;;
59062;SDS011;44851;45.648;9.004;2023-01-15T05:58:33;18.20;;;13.03;;
59062;SDS011;44851;45.648;9.004;2023-01-15T06:00:58;18.97;;;13.83;;
59062;SDS011;44851;45.648;9.004;2023-01-15T06:03:24;22.17;;;13.70;;
59062;SDS011;44851;45.648;9.004;2023-01-15T06:05:53;18.97;;;14.27;;
59062;SDS011;44851;45.648;9.004;2023-01-15T06:08:20;20.40;;;14.50;;
59062;SDS011;44851;45.648;9.004;2023-01-15T06:10:46;17.13;;;13.23;;
59062;SDS011;44851;45.648;9.004;2023-01-15T06:13:13;20.37;;;13.90;;
59062;SDS011;44851;45.648;9.004;2023-01-15T06:15:39;17.53;;;13.40;;
59062;SDS011;44851;45.648;9.004;2023-01-15T06:18:05;18.47;;;13.77;;
59062;SDS011;44851;45.648;9.004;2023-01-15T06:20:30;18.97;;;13.73;;
59062;SDS011;44851;45.648;9.004;2023-01-15T06:22:56;18.27;;;12.47;;
59062;SDS011;44851;45.648;9.004;2023-01-15T06:25:21;20.03;;;14.07;;
59062;SDS011;44851;45.648;9.004;2023-01-15T06:27:47;18.60;;;13.07;;
59062;SDS011;44851;45.648;9.004;2023-01-15T06:30:13;19.83;;;13.67;;
59062;SDS011;44851;45.648;9.004;2023-01-15T06:32:39;19.93;;;14.00;;
59062;SDS011;44851;45.648;9.004;2023-01-15T06:35:05;21.90;;;14.90;;
59062;SDS011;44851;45.648;9.004;2023-01-15T06:37:30;19.57;;;13.23;;
59062;SDS011;44851;45.648;9.004;2023-01-15T06:39:56;21.00;;;15.10;;
59062;SDS011;44851;45.648;9.004;2023-01-15T06:42:21;18.50;;;14.60;;
59062;SDS011;44851;45.648;9.004;2023-01-15T06:45:05;20.67;;;13.27;;
59062;SDS011;44851;45.648;9.004;2023-01-15T06:47:49;22.83;;;14.43;;
59062;SDS011;44851;45.648;9.004;2023-01-15T06:50:15;21.40;;;14.43;;
59062;SDS011;44851;45.648;9.004;2023-01-15T06:52:40;18.17;;;13.80;;
59062;SDS011;44851;45.648;9.004;2023-01-15T06:55:06;20.57;;;14.20;;
59062;SDS011;44851;45.648;9.004;2023-01-15T06:57:31;20.80;;;14.10;;
59062;SDS011;44851;45.648;9.004;2023-01-15T06:59:57;20.77;;;14.37;;
59062;SDS011;44851;45.648;9.004;2023-01-15T07:02:22;19.63;;;13.93;;
59062;SDS011;44851;45.648;9.004;2023-01-15T07:04:48;20.13;;;14.07;;
59062;SDS011;44851;45.648;9.004;2023-01-15T07:07:14;19.53;;;14.00;;
59062;SDS011;44851;45.648;9.004;2023-01-15T07:09:41;21.50;;;13.53;;
59062;SDS011;44851;45.648;9.004;2023-01-15T07:12:06;18.90;;;14.17;;
59062;SDS011;44851;45.648;9.004;2023-01-15T07:14:31;20.67;;;15.07;;
59062;SDS011;44851;45.648;9.004;2023-01-15T07:16:57;20.00;;;14.30;;
59062;SDS011;44851;45.648;9.004;2023-01-15T07:19:23;19.83;;;14.47;;
59062;SDS011;44851;45.648;9.004;2023-01-15T07:21:48;20.07;;;14.20;;
59062;SDS011;44851;45.648;9.004;2023-01-15T07:24:14;19.47;;;14.90;;
59062;SDS011;44851;45.648;9.004;2023-01-15T07:26:40;18.60;;;13.83;;
59062;SDS011;44851;45.648;9.004;2023-01-15T07:29:05;19.37;;;13.73;;
59062;SDS011;44851;45.648;9.004;2023-01-15T07:31:31;23.30;;;14.87;;
59062;SDS011;44851;45.648;9.004;2023-01-15T07:33:56;18.13;;;13.87;;
59062;SDS011;44851;45.648;9.004;2023-01-15T07:36:22;21.43;;;14.57;;
59062;SDS011;44851;45.648;9.004;2023-01-15T07:38:47;18.20;;;13.67;;
59062;SDS011;44851;45.648;9.004;2023-01-15T07:41:13;21.93;;;14.13;;
59062;SDS011;44851;45.648;9.004;2023-01-15T07:43:57;19.00;;;14.40;;
59062;SDS011;44851;45.648;9.004;2023-01-15T07:46:41;22.83;;;15.30;;
59062;SDS011;44851;45.648;9.004;2023-01-15T07:49:25;23.70;;;14.80;;
59062;SDS011;44851;45.648;9.004;2023-01-15T07:52:09;23.93;;;15.83;;
59062;SDS011;44851;45.648;9.004;2023-01-15T07:54:35;23.10;;;15.73;;
59062;SDS011;44851;45.648;9.004;2023-01-15T07:57:00;26.57;;;16.40;;
59062;SDS011;44851;45.648;9.004;2023-01-15T07:59:26;23.23;;;15.73;;
59062;SDS011;44851;45.648;9.004;2023-01-15T08:01:51;25.00;;;17.60;;
59062;SDS011;44851;45.648;9.004;2023-01-15T08:04:16;25.87;;;16.97;;
59062;SDS011;44851;45.648;9.004;2023-01-15T08:06:42;21.80;;;15.73;;
59062;SDS011;44851;45.648;9.004;2023-01-15T08:09:07;25.77;;;16.43;;
59062;SDS011;44851;45.648;9.004;2023-01-15T08:11:33;20.93;;;14.57;;
59062;SDS011;44851;45.648;9.004;2023-01-15T08:14:17;22.20;;;15.67;;
59062;SDS011;44851;45.648;9.004;2023-01-15T08:17:01;22.83;;;15.37;;
59062;SDS011;44851;45.648;9.004;2023-01-15T08:19:26;19.87;;;15.10;;
59062;SDS011;44851;45.648;9.004;2023-01-15T08:21:54;21.50;;;14.97;;
59062;SDS011;44851;45.648;9.004;2023-01-15T08:24:20;23.23;;;15.50;;
59062;SDS011;44851;45.648;9.004;2023-01-15T08:26:47;22.87;;;16.37;;
59062;SDS011;44851;45.648;9.004;2023-01-15T08:29:12;29.67;;;19.43;;
59062;SDS011;44851;45.648;9.004;2023-01-15T08:31:37;29.50;;;19.83;;
59062;SDS011;44851;45.648;9.004;2023-01-15T08:34:05;27.70;;;18.03;;
59062;SDS011;44851;45.648;9.004;2023-01-15T08:36:30;27.57;;;18.10;;
59062;SDS011;44851;45.648;9.004;2023-01-15T08:38:56;24.03;;;17.50;;
59062;SDS011;44851;45.648;9.004;2023-01-15T08:41:21;23.50;;;17.07;;
59062;SDS011;44851;45.648;9.004;2023-01-15T08:43:46;24.80;;;16.97;;
59062;SDS011;44851;45.648;9.004;2023-01-15T08:46:12;24.70;;;18.33;;
59062;SDS011;44851;45.648;9.004;2023-01-15T08:48:37;25.10;;;18.37;;
59062;SDS011;44851;45.648;9.004;2023-01-15T08:51:06;23.63;;;17.33;;
59062;SDS011;44851;45.648;9.004;2023-01-15T08:53:33;24.57;;;17.13;;
59062;SDS011;44851;45.648;9.004;2023-01-15T08:55:58;24.60;;;16.33;;
59062;SDS011;44851;45.648;9.004;2023-01-15T08:58:26;23.30;;;16.80;;
59062;SDS011;44851;45.648;9.004;2023-01-15T09:00:53;23.57;;;16.77;;
59062;SDS011;44851;45.648;9.004;2023-01-15T09:03:18;27.90;;;16.83;;
59062;SDS011;44851;45.648;9.004;2023-01-15T09:05:43;25.07;;;17.80;;
59062;SDS011;44851;45.648;9.004;2023-01-15T09:08:09;27.73;;;17.60;;
59062;SDS011;44851;45.648;9.004;2023-01-15T09:10:34;26.37;;;16.47;;
59062;SDS011;44851;45.648;9.004;2023-01-15T09:13:00;24.60;;;17.63;;
59062;SDS011;44851;45.648;9.004;2023-01-15T09:15:30;20.73;;;15.77;;
59062;SDS011;44851;45.648;9.004;2023-01-15T09:17:57;21.27;;;15.90;;
59062;SDS011;44851;45.648;9.004;2023-01-15T09:20:23;22.93;;;16.17;;
59062;SDS011;44851;45.648;9.004;2023-01-15T09:22:48;24.77;;;17.27;;
59062;SDS011;44851;45.648;9.004;2023-01-15T09:25:14;23.33;;;16.40;;
59062;SDS011;44851;45.648;9.004;2023-01-15T09:27:40;21.93;;;16.13;;
59062;SDS011;44851;45.648;9.004;2023-01-15T09:30:06;22.90;;;16.23;;
59062;SDS011;44851;45.648;9.004;2023-01-15T09:32:34;23.40;;;17.10;;
59062;SDS011;44851;45.648;9.004;2023-01-15T09:35:00;24.13;;;17.00;;
59062;SDS011;44851;45.648;9.004;2023-01-15T09:37:26;23.67;;;16.70;;
59062;SDS011;44851;45.648;9.004;2023-01-15T09:39:51;22.97;;;16.90;;
59062;SDS011;44851;45.648;9.004;2023-01-15T09:43:03;24.00;;;18.57;;
59062;SDS011;44851;45.648;9.004;2023-01-15T09:47:39;24.50;;;17.63;;
59062;SDS011;44851;45.648;9.004;2023-01-15T09:50:23;27.57;;;19.00;;
59062;SDS011;44851;45.648;9.004;2023-01-15T09:52:58;29.13;;;19.93;;
59062;SDS011;44851;45.648;9.004;2023-01-15T09:55:41;29.97;;;20.57;;
59062;SDS011;44851;45.648;9.004;2023-01-15T09:58:10;26.67;;;19.03;;
59062;SDS011;44851;45.648;9.004;2023-01-15T10:00:43;25.77;;;18.83;;
59062;SDS011;44851;45.648;9.004;2023-01-15T10:03:16;29.33;;;21.03;;
59062;SDS011;44851;45.648;9.004;2023-01-15T10:05:52;25.87;;;19.30;;
59062;SDS011;44851;45.648;9.004;2023-01-15T10:08:23;28.40;;;20.87;;
59062;SDS011;44851;45.648;9.004;2023-01-15T10:11:01;31.43;;;20.20;;
59062;SDS011;44851;45.648;9.004;2023-01-15T10:13:44;32.80;;;21.20;;
59062;SDS011;44851;45.648;9.004;2023-01-15T10:16:13;31.80;;;22.60;;
59062;SDS011;44851;45.648;9.004;2023-01-15T10:18:44;33.90;;;23.30;;
59062;SDS011;44851;45.648;9.004;2023-01-15T10:24:05;39.47;;;25.00;;
59062;SDS011;44851;45.648;9.004;2023-01-15T10:26:37;36.23;;;26.03;;
59062;SDS011;44851;45.648;9.004;2023-01-15T10:31:49;43.47;;;29.33;;
59062;SDS011;44851;45.648;9.004;2023-01-15T10:37:07;38.97;;;27.47;;
59062;SDS011;44851;45.648;9.004;2023-01-15T10:42:25;44.63;;;30.83;;
59062;SDS011;44851;45.648;9.004;2023-01-15T10:45:18;43.27;;;29.67;;
59062;SDS011;44851;45.648;9.004;2023-01-15T10:47:47;44.13;;;29.77;;
59062;SDS011;44851;45.648;9.004;2023-01-15T10:50:19;42.27;;;28.70;;
59062;SDS011;44851;45.648;9.004;2023-01-15T10:52:48;43.03;;;28.50;;
59062;SDS011;44851;45.648;9.004;2023-01-15T10:55:28;42.50;;;29.17;;
59062;SDS011;44851;45.648;9.004;2023-01-15T10:58:02;47.80;;;29.40;;
59062;SDS011;44851;45.648;9.004;2023-01-15T11:00:37;42.63;;;27.93;;
59062;SDS011;44851;45.648;9.004;2023-01-15T11:03:04;46.43;;;29.87;;
59062;SDS011;44851;45.648;9.004;2023-01-15T11:05:39;42.17;;;27.90;;
59062;SDS011;44851;45.648;9.004;2023-01-15T11:08:10;43.07;;;29.10;;
59062;SDS011;44851;45.648;9.004;2023-01-15T11:10:43;46.20;;;29.20;;
59062;SDS011;44851;45.648;9.004;2023-01-15T11:13:19;46.50;;;30.97;;
59062;SDS011;44851;45.648;9.004;2023-01-15T11:16:10;47.80;;;32.23;;
59062;SDS011;44851;45.648;9.004;2023-01-15T11:18:59;49.77;;;32.90;;
59062;SDS011;44851;45.648;9.004;2023-01-15T11:21:45;45.57;;;30.03;;
59062;SDS011;44851;45.648;9.004;2023-01-15T11:24:14;48.47;;;30.83;;
59062;SDS011;44851;45.648;9.004;2023-01-15T11:26:44;51.27;;;33.03;;
59062;SDS011;44851;45.648;9.004;2023-01-15T11:29:19;46.23;;;31.87;;
59062;SDS011;44851;45.648;9.004;2023-01-15T11:31:53;44.67;;;31.13;;
59062;SDS011;44851;45.648;9.004;2023-01-15T11:34:19;44.57;;;30.30;;
59062;SDS011;44851;45.648;9.004;2023-01-15T11:36:46;41.87;;;28.87;;
59062;SDS011;44851;45.648;9.004;2023-01-15T11:39:24;42.73;;;30.23;;
59062;SDS011;44851;45.648;9.004;2023-01-15T11:42:25;41.57;;;30.10;;
59062;SDS011;44851;45.648;9.004;2023-01-15T11:45:10;42.00;;;28.90;;
59062;SDS011;44851;45.648;9.004;2023-01-15T11:47:55;38.47;;;28.20;;
59062;SDS011;44851;45.648;9.004;2023-01-15T11:50:53;40.73;;;28.93;;
59062;SDS011;44851;45.648;9.004;2023-01-15T11:53:25;46.83;;;29.43;;
59062;SDS011;44851;45.648;9.004;2023-01-15T11:55:59;43.27;;;28.73;;
59062;SDS011;44851;45.648;9.004;2023-01-15T11:58:38;41.23;;;28.27;;
59062;SDS011;44851;45.648;9.004;2023-01-15T12:01:07;43.17;;;28.83;;
59062;SDS011;44851;45.648;9.004;2023-01-15T12:03:33;47.40;;;30.87;;
59062;SDS011;44851;45.648;9.004;2023-01-15T12:06:10;43.97;;;29.53;;
59062;SDS011;44851;45.648;9.004;2023-01-15T12:08:50;52.87;;;32.07;;
59062;SDS011;44851;45.648;9.004;2023-01-15T12:17:00;50.10;;;32.10;;
59062;SDS011;44851;45.648;9.004;2023-01-15T12:30:32;53.17;;;33.70;;
59062;SDS011;44851;45.648;9.004;2023-01-15T12:33:21;56.13;;;34.53;;
59062;SDS011;44851;45.648;9.004;2023-01-15T12:35:52;55.87;;;34.53;;
59062;SDS011;44851;45.648;9.004;2023-01-15T12:38:40;51.50;;;33.27;;
59062;SDS011;44851;45.648;9.004;2023-01-15T12:41:13;57.53;;;36.43;;
59062;SDS011;44851;45.648;9.004;2023-01-15T12:43:44;52.37;;;34.40;;
59062;SDS011;44851;45.648;9.004;2023-01-15T12:46:32;52.37;;;32.27;;
59062;SDS011;44851;45.648;9.004;2023-01-15T12:49:18;49.67;;;32.63;;
59062;SDS011;44851;45.648;9.004;2023-01-15T12:54:47;55.67;;;33.43;;
59062;SDS011;44851;45.648;9.004;2023-01-15T12:57:18;48.07;;;31.63;;
59062;SDS011;44851;45.648;9.004;2023-01-15T12:59:53;50.90;;;32.90;;
59062;SDS011;44851;45.648;9.004;2023-01-15T13:05:14;49.03;;;31.70;;
59062;SDS011;44851;45.648;9.004;2023-01-15T13:07:43;54.43;;;33.03;;
59062;SDS011;44851;45.648;9.004;2023-01-15T13:10:21;54.37;;;33.73;;
59062;SDS011;44851;45.648;9.004;2023-01-15T13:12:50;53.67;;;33.73;;
59062;SDS011;44851;45.648;9.004;2023-01-15T13:15:18;51.70;;;33.57;;
59062;SDS011;44851;45.648;9.004;2023-01-15T13:23:13;60.17;;;34.77;;
59062;SDS011;44851;45.648;9.004;2023-01-15T13:28:29;54.90;;;34.47;;
59062;SDS011;44851;45.648;9.004;2023-01-15T13:33:40;55.87;;;35.07;;
59062;SDS011;44851;45.648;9.004;2023-01-15T13:36:15;60.27;;;34.40;;
59062;SDS011;44851;45.648;9.004;2023-01-15T13:38:48;54.13;;;34.47;;
59062;SDS011;44851;45.648;9.004;2023-01-15T13:41:18;55.37;;;35.67;;
59062;SDS011;44851;45.648;9.004;2023-01-15T13:44:10;55.53;;;33.70;;
59062;SDS011;44851;45.648;9.004;2023-01-15T13:46:43;55.40;;;35.77;;
59062;SDS011;44851;45.648;9.004;2023-01-15T13:49:20;56.97;;;34.77;;
59062;SDS011;44851;45.648;9.004;2023-01-15T13:51:54;51.73;;;34.33;;
59062;SDS011;44851;45.648;9.004;2023-01-15T13:54:22;55.10;;;35.43;;
59062;SDS011;44851;45.648;9.004;2023-01-15T13:56:52;59.60;;;37.07;;
59062;SDS011;44851;45.648;9.004;2023-01-15T14:02:22;60.73;;;36.87;;
59062;SDS011;44851;45.648;9.004;2023-01-15T14:04:52;57.70;;;35.93;;
59062;SDS011;44851;45.648;9.004;2023-01-15T14:07:20;57.23;;;36.80;;
59062;SDS011;44851;45.648;9.004;2023-01-15T14:10:06;58.63;;;36.40;;
59062;SDS011;44851;45.648;9.004;2023-01-15T14:12:48;70.30;;;35.53;;
59062;SDS011;44851;45.648;9.004;2023-01-15T14:20:54;58.90;;;36.67;;
59062;SDS011;44851;45.648;9.004;2023-01-15T14:36:45;50.57;;;32.03;;
59062;SDS011;44851;45.648;9.004;2023-01-15T14:39:21;54.47;;;33.07;;
59062;SDS011;44851;45.648;9.004;2023-01-15T14:41:57;48.57;;;31.30;;
59062;SDS011;44851;45.648;9.004;2023-01-15T14:44:46;51.23;;;32.23;;
59062;SDS011;44851;45.648;9.004;2023-01-15T14:47:24;47.23;;;30.33;;
59062;SDS011;44851;45.648;9.004;2023-01-15T14:50:17;48.30;;;30.70;;
59062;SDS011;44851;45.648;9.004;2023-01-15T14:52:44;47.70;;;31.40;;
59062;SDS011;44851;45.648;9.004;2023-01-15T14:55:10;47.47;;;31.33;;
59062;SDS011;44851;45.648;9.004;2023-01-15T14:57:37;56.10;;;32.33;;
59062;SDS011;44851;45.648;9.004;2023-01-15T15:00:03;52.83;;;33.97;;
59062;SDS011;44851;45.648;9.004;2023-01-15T15:02:38;50.17;;;32.00;;
59062;SDS011;44851;45.648;9.004;2023-01-15T15:05:17;52.13;;;32.40;;
59062;SDS011;44851;45.648;9.004;2023-01-15T15:07:48;57.13;;;35.23;;
59062;SDS011;44851;45.648;9.004;2023-01-15T15:10:20;51.03;;;31.50;;
59062;SDS011;44851;45.648;9.004;2023-01-15T15:18:21;49.60;;;31.60;;
59062;SDS011;44851;45.648;9.004;2023-01-15T15:20:53;52.30;;;32.80;;
59062;SDS011;44851;45.648;9.004;2023-01-15T15:26:27;45.60;;;28.67;;
59062;SDS011;44851;45.648;9.004;2023-01-15T15:29:01;48.97;;;30.90;;
59062;SDS011;44851;45.648;9.004;2023-01-15T15:31:28;47.90;;;31.23;;
59062;SDS011;44851;45.648;9.004;2023-01-15T15:33:57;49.07;;;31.90;;
59062;SDS011;44851;45.648;9.004;2023-01-15T15:36:23;48.40;;;30.50;;
59062;SDS011;44851;45.648;9.004;2023-01-15T15:39:00;46.03;;;29.33;;
59062;SDS011;44851;45.648;9.004;2023-01-15T15:41:29;46.73;;;29.73;;
59062;SDS011;44851;45.648;9.004;2023-01-15T15:44:38;49.43;;;31.07;;
59062;SDS011;44851;45.648;9.004;2023-01-15T15:47:24;50.20;;;32.23;;
59062;SDS011;44851;45.648;9.004;2023-01-15T15:50:22;52.63;;;33.27;;
59062;SDS011;44851;45.648;9.004;2023-01-15T15:52:51;52.70;;;32.17;;
59062;SDS011;44851;45.648;9.004;2023-01-15T15:55:17;56.73;;;34.17;;
59062;SDS011;44851;45.648;9.004;2023-01-15T15:57:48;56.87;;;40.53;;
59062;SDS011;44851;45.648;9.004;2023-01-15T16:00:18;55.23;;;36.43;;
59062;SDS011;44851;45.648;9.004;2023-01-15T16:02:47;53.57;;;36.30;;
59062;SDS011;44851;45.648;9.004;2023-01-15T16:07:46;48.97;;;32.77;;
59062;SDS011;44851;45.648;9.004;2023-01-15T16:10:13;48.87;;;29.70;;
59062;SDS011;44851;45.648;9.004;2023-01-15T16:12:44;48.37;;;30.97;;
59062;SDS011;44851;45.648;9.004;2023-01-15T16:15:16;47.10;;;31.50;;
59062;SDS011;44851;45.648;9.004;2023-01-15T16:17:43;47.13;;;31.90;;
59062;SDS011;44851;45.648;9.004;2023-01-15T16:20:16;48.90;;;32.23;;
59062;SDS011;44851;45.648;9.004;2023-01-15T16:23:05;47.20;;;32.43;;
59062;SDS011;44851;45.648;9.004;2023-01-15T16:25:33;51.60;;;32.03;;
59062;SDS011;44851;45.648;9.004;2023-01-15T16:28:01;47.33;;;31.27;;
59062;SDS011;44851;45.648;9.004;2023-01-15T16:30:28;52.23;;;34.03;;
59062;SDS011;44851;45.648;9.004;2023-01-15T16:32:58;52.40;;;33.67;;
59062;SDS011;44851;45.648;9.004;2023-01-15T16:35:30;49.47;;;32.13;;
59062;SDS011;44851;45.648;9.004;2023-01-15T16:37:59;48.20;;;31.40;;